sensor_id;sensor_type;location;lat;lon;timestamp;temperature;humidity
24638;DHT22;12773;50.162;8.548;2022-12-11T00:02:08;0.20;99.90
24638;DHT22;12773;50.162;8.548;2022-12-11T00:04:55;0.20;99.90
24638;DHT22;12773;50.162;8.548;2022-12-11T00:07:43;0.20;99.90
24638;DHT22;12773;50.162;8.548;2022-12-11T00:10:30;0.30;99.90
24638;DHT22;12773;50.162;8.548;2022-12-11T00:13:19;0.30;99.90
24638;DHT22;12773;50.162;8.548;2022-12-11T00:16:06;0.40;99.90
24638;DHT22;12773;50.162;8.548;2022-12-11T00:18:54;0.40;99.90
24638;DHT22;12773;50.162;8.548;2022-12-11T00:21:42;0.50;99.90
24638;DHT22;12773;50.162;8.548;2022-12-11T00:24:29;0.60;99.90
24638;DHT22;12773;50.162;8.548;2022-12-11T00:27:16;0.60;99.90
24638;DHT22;12773;50.162;8.548;2022-12-11T00:30:04;0.70;99.90
24638;DHT22;12773;50.162;8.548;2022-12-11T00:32:51;0.70;99.90
24638;DHT22;12773;50.162;8.548;2022-12-11T00:35:45;0.80;99.90
24638;DHT22;12773;50.162;8.548;2022-12-11T00:38:33;0.90;99.90
24638;DHT22;12773;50.162;8.548;2022-12-11T00:41:20;1.00;99.90
24638;DHT22;12773;50.162;8.548;2022-12-11T00:44:08;1.00;99.90
24638;DHT22;12773;50.162;8.548;2022-12-11T00:46:55;1.10;99.90
24638;DHT22;12773;50.162;8.548;2022-12-11T00:49:43;1.10;99.90
24638;DHT22;12773;50.162;8.548;2022-12-11T00:52:32;1.10;99.90
24638;DHT22;12773;50.162;8.548;2022-12-11T00:55:20;1.10;99.90
24638;DHT22;12773;50.162;8.548;2022-12-11T00:58:08;1.00;99.90
24638;DHT22;12773;50.162;8.548;2022-12-11T01:01:03;1.00;99.90
24638;DHT22;12773;50.162;8.548;2022-12-11T01:03:46;1.10;99.90
24638;DHT22;12773;50.162;8.548;2022-12-11T01:06:34;1.10;99.90
24638;DHT22;12773;50.162;8.548;2022-12-11T01:09:21;1.10;99.90
24638;DHT22;12773;50.162;8.548;2022-12-11T01:12:27;1.00;99.90
24638;DHT22;12773;50.162;8.548;2022-12-11T01:15:15;1.00;99.90
24638;DHT22;12773;50.162;8.548;2022-12-11T01:18:02;1.10;99.90
24638;DHT22;12773;50.162;8.548;2022-12-11T01:20:50;1.10;99.90
24638;DHT22;12773;50.162;8.548;2022-12-11T01:23:39;1.20;99.90
24638;DHT22;12773;50.162;8.548;2022-12-11T01:26:27;1.20;99.90
24638;DHT22;12773;50.162;8.548;2022-12-11T01:29:16;1.30;99.90
24638;DHT22;12773;50.162;8.548;2022-12-11T01:32:04;1.20;99.90
24638;DHT22;12773;50.162;8.548;2022-12-11T01:34:51;1.30;99.90
24638;DHT22;12773;50.162;8.548;2022-12-11T01:37:38;1.30;99.90
24638;DHT22;12773;50.162;8.548;2022-12-11T01:40:26;1.30;99.90
24638;DHT22;12773;50.162;8.548;2022-12-11T01:43:13;1.20;99.90
24638;DHT22;12773;50.162;8.548;2022-12-11T01:46:01;1.30;99.90
24638;DHT22;12773;50.162;8.548;2022-12-11T01:48:48;1.40;99.90
24638;DHT22;12773;50.162;8.548;2022-12-11T01:52:02;1.30;99.90
24638;DHT22;12773;50.162;8.548;2022-12-11T01:54:27;1.30;99.90
24638;DHT22;12773;50.162;8.548;2022-12-11T01:57:15;1.20;99.90
24638;DHT22;12773;50.162;8.548;2022-12-11T02:00:03;1.10;99.90
24638;DHT22;12773;50.162;8.548;2022-12-11T02:02:50;1.10;99.90
24638;DHT22;12773;50.162;8.548;2022-12-11T02:05:38;1.00;99.90
24638;DHT22;12773;50.162;8.548;2022-12-11T02:08:27;1.20;99.90
24638;DHT22;12773;50.162;8.548;2022-12-11T02:11:19;1.20;99.90
24638;DHT22;12773;50.162;8.548;2022-12-11T02:14:19;1.40;99.90
24638;DHT22;12773;50.162;8.548;2022-12-11T02:17:08;1.50;99.90
24638;DHT22;12773;50.162;8.548;2022-12-11T02:20:21;1.50;99.90
24638;DHT22;12773;50.162;8.548;2022-12-11T02:26:35;1.50;99.90
24638;DHT22;12773;50.162;8.548;2022-12-11T02:29:35;1.50;99.90
24638;DHT22;12773;50.162;8.548;2022-12-11T02:35:34;1.80;99.90
24638;DHT22;12773;50.162;8.548;2022-12-11T02:38:25;1.80;99.90
24638;DHT22;12773;50.162;8.548;2022-12-11T02:41:12;1.90;99.90
24638;DHT22;12773;50.162;8.548;2022-12-11T02:44:02;2.00;99.90
24638;DHT22;12773;50.162;8.548;2022-12-11T02:46:51;2.10;99.90
24638;DHT22;12773;50.162;8.548;2022-12-11T02:49:41;2.10;99.90
24638;DHT22;12773;50.162;8.548;2022-12-11T02:52:30;2.10;99.90
24638;DHT22;12773;50.162;8.548;2022-12-11T02:55:18;2.00;99.90
24638;DHT22;12773;50.162;8.548;2022-12-11T02:58:25;2.10;99.90
24638;DHT22;12773;50.162;8.548;2022-12-11T03:01:03;2.00;99.90
24638;DHT22;12773;50.162;8.548;2022-12-11T03:03:52;1.90;99.90
24638;DHT22;12773;50.162;8.548;2022-12-11T03:06:43;2.10;99.90
24638;DHT22;12773;50.162;8.548;2022-12-11T03:09:31;2.10;99.90
24638;DHT22;12773;50.162;8.548;2022-12-11T03:12:21;2.10;99.90
24638;DHT22;12773;50.162;8.548;2022-12-11T03:15:12;2.10;99.90
24638;DHT22;12773;50.162;8.548;2022-12-11T03:18:21;2.00;99.90
24638;DHT22;12773;50.162;8.548;2022-12-11T03:24:24;2.00;99.90
24638;DHT22;12773;50.162;8.548;2022-12-11T03:27:29;2.00;99.90
24638;DHT22;12773;50.162;8.548;2022-12-11T03:30:12;2.00;99.90
24638;DHT22;12773;50.162;8.548;2022-12-11T03:33:06;1.90;99.90
24638;DHT22;12773;50.162;8.548;2022-12-11T03:35:55;2.00;99.90
24638;DHT22;12773;50.162;8.548;2022-12-11T03:38:46;2.10;99.90
24638;DHT22;12773;50.162;8.548;2022-12-11T03:41:39;2.10;99.90
24638;DHT22;12773;50.162;8.548;2022-12-11T03:44:29;2.00;99.90
24638;DHT22;12773;50.162;8.548;2022-12-11T03:47:20;2.00;99.90
24638;DHT22;12773;50.162;8.548;2022-12-11T03:50:10;2.00;99.90
24638;DHT22;12773;50.162;8.548;2022-12-11T03:52:59;2.00;99.90
24638;DHT22;12773;50.162;8.548;2022-12-11T03:55:48;2.00;99.90
24638;DHT22;12773;50.162;8.548;2022-12-11T03:58:37;2.00;99.90
24638;DHT22;12773;50.162;8.548;2022-12-11T04:01:26;2.00;99.90
24638;DHT22;12773;50.162;8.548;2022-12-11T04:04:13;2.00;99.90
24638;DHT22;12773;50.162;8.548;2022-12-11T04:07:01;2.10;99.90
24638;DHT22;12773;50.162;8.548;2022-12-11T04:09:48;2.00;99.90
24638;DHT22;12773;50.162;8.548;2022-12-11T04:12:36;1.90;99.90
24638;DHT22;12773;50.162;8.548;2022-12-11T04:15:23;1.90;99.90
24638;DHT22;12773;50.162;8.548;2022-12-11T04:18:10;1.90;99.90
24638;DHT22;12773;50.162;8.548;2022-12-11T04:21:16;1.90;99.90
24638;DHT22;12773;50.162;8.548;2022-12-11T04:24:23;1.90;99.90
24638;DHT22;12773;50.162;8.548;2022-12-11T04:27:11;1.90;99.90
24638;DHT22;12773;50.162;8.548;2022-12-11T04:29:58;1.90;99.90
24638;DHT22;12773;50.162;8.548;2022-12-11T04:32:46;2.00;99.90
24638;DHT22;12773;50.162;8.548;2022-12-11T04:35:35;2.00;99.90
24638;DHT22;12773;50.162;8.548;2022-12-11T04:38:23;2.10;99.90
24638;DHT22;12773;50.162;8.548;2022-12-11T04:41:12;2.10;99.90
24638;DHT22;12773;50.162;8.548;2022-12-11T04:44:00;2.10;99.90
24638;DHT22;12773;50.162;8.548;2022-12-11T04:46:49;2.10;99.90
24638;DHT22;12773;50.162;8.548;2022-12-11T04:49:36;2.00;99.90
24638;DHT22;12773;50.162;8.548;2022-12-11T04:52:24;2.00;99.90
24638;DHT22;12773;50.162;8.548;2022-12-11T04:55:12;2.00;99.90
24638;DHT22;12773;50.162;8.548;2022-12-11T04:57:59;2.10;99.90
24638;DHT22;12773;50.162;8.548;2022-12-11T05:00:47;2.10;99.90
24638;DHT22;12773;50.162;8.548;2022-12-11T05:03:34;2.10;99.90
24638;DHT22;12773;50.162;8.548;2022-12-11T05:06:22;2.20;99.90
24638;DHT22;12773;50.162;8.548;2022-12-11T05:09:12;2.30;99.90
24638;DHT22;12773;50.162;8.548;2022-12-11T05:12:00;2.30;99.90
24638;DHT22;12773;50.162;8.548;2022-12-11T05:14:52;2.20;99.90
24638;DHT22;12773;50.162;8.548;2022-12-11T05:17:40;2.20;99.90
24638;DHT22;12773;50.162;8.548;2022-12-11T05:20:27;2.20;99.90
24638;DHT22;12773;50.162;8.548;2022-12-11T05:23:14;2.20;99.90
24638;DHT22;12773;50.162;8.548;2022-12-11T05:26:05;2.20;99.90
24638;DHT22;12773;50.162;8.548;2022-12-11T05:28:53;2.10;99.90
24638;DHT22;12773;50.162;8.548;2022-12-11T05:31:40;2.00;99.90
24638;DHT22;12773;50.162;8.548;2022-12-11T05:34:27;1.80;99.90
24638;DHT22;12773;50.162;8.548;2022-12-11T05:37:15;1.80;99.90
24638;DHT22;12773;50.162;8.548;2022-12-11T05:40:03;1.80;99.90
24638;DHT22;12773;50.162;8.548;2022-12-11T05:42:51;1.90;99.90
24638;DHT22;12773;50.162;8.548;2022-12-11T05:45:39;1.90;99.90
24638;DHT22;12773;50.162;8.548;2022-12-11T05:48:26;2.00;99.90
24638;DHT22;12773;50.162;8.548;2022-12-11T05:51:15;2.00;99.90
24638;DHT22;12773;50.162;8.548;2022-12-11T05:54:03;2.00;99.90
24638;DHT22;12773;50.162;8.548;2022-12-11T05:56:53;2.10;99.90
24638;DHT22;12773;50.162;8.548;2022-12-11T05:59:41;2.10;99.90
24638;DHT22;12773;50.162;8.548;2022-12-11T06:02:28;2.00;99.90
24638;DHT22;12773;50.162;8.548;2022-12-11T06:05:16;1.90;99.90
24638;DHT22;12773;50.162;8.548;2022-12-11T06:08:04;1.90;99.90
24638;DHT22;12773;50.162;8.548;2022-12-11T06:10:51;1.90;99.90
24638;DHT22;12773;50.162;8.548;2022-12-11T06:13:40;1.90;99.90
24638;DHT22;12773;50.162;8.548;2022-12-11T06:16:27;2.00;99.90
24638;DHT22;12773;50.162;8.548;2022-12-11T06:19:15;2.00;99.90
24638;DHT22;12773;50.162;8.548;2022-12-11T06:22:04;2.00;99.90
24638;DHT22;12773;50.162;8.548;2022-12-11T06:24:51;2.00;99.90
24638;DHT22;12773;50.162;8.548;2022-12-11T06:27:39;2.00;99.90
24638;DHT22;12773;50.162;8.548;2022-12-11T06:30:26;2.00;99.90
24638;DHT22;12773;50.162;8.548;2022-12-11T06:33:15;2.00;99.90
24638;DHT22;12773;50.162;8.548;2022-12-11T06:36:05;2.00;99.90
24638;DHT22;12773;50.162;8.548;2022-12-11T06:38:54;2.10;99.90
24638;DHT22;12773;50.162;8.548;2022-12-11T06:41:41;2.10;99.90
24638;DHT22;12773;50.162;8.548;2022-12-11T06:44:28;2.20;99.90
24638;DHT22;12773;50.162;8.548;2022-12-11T06:47:16;2.20;99.90
24638;DHT22;12773;50.162;8.548;2022-12-11T06:50:03;2.20;99.90
24638;DHT22;12773;50.162;8.548;2022-12-11T06:52:50;2.20;99.90
24638;DHT22;12773;50.162;8.548;2022-12-11T06:55:39;2.20;99.90
24638;DHT22;12773;50.162;8.548;2022-12-11T06:58:26;2.20;99.90
24638;DHT22;12773;50.162;8.548;2022-12-11T07:01:20;2.20;99.90
24638;DHT22;12773;50.162;8.548;2022-12-11T07:04:08;2.20;99.90
24638;DHT22;12773;50.162;8.548;2022-12-11T07:06:56;2.10;99.90
24638;DHT22;12773;50.162;8.548;2022-12-11T07:09:45;2.10;99.90
24638;DHT22;12773;50.162;8.548;2022-12-11T07:12:32;2.10;99.90
24638;DHT22;12773;50.162;8.548;2022-12-11T07:15:20;2.10;99.90
24638;DHT22;12773;50.162;8.548;2022-12-11T07:18:07;2.20;99.90
24638;DHT22;12773;50.162;8.548;2022-12-11T07:20:58;2.30;99.90
24638;DHT22;12773;50.162;8.548;2022-12-11T07:23:49;2.30;99.90
24638;DHT22;12773;50.162;8.548;2022-12-11T07:26:36;2.40;99.90
24638;DHT22;12773;50.162;8.548;2022-12-11T07:29:23;2.40;99.90
24638;DHT22;12773;50.162;8.548;2022-12-11T07:32:11;2.30;99.90
24638;DHT22;12773;50.162;8.548;2022-12-11T07:35:01;2.40;99.90
24638;DHT22;12773;50.162;8.548;2022-12-11T07:37:48;2.40;99.90
24638;DHT22;12773;50.162;8.548;2022-12-11T07:40:36;2.40;99.90
24638;DHT22;12773;50.162;8.548;2022-12-11T07:43:23;2.30;99.90
24638;DHT22;12773;50.162;8.548;2022-12-11T07:46:13;2.40;99.90
24638;DHT22;12773;50.162;8.548;2022-12-11T07:49:03;2.40;99.90
24638;DHT22;12773;50.162;8.548;2022-12-11T07:51:50;2.50;99.90
24638;DHT22;12773;50.162;8.548;2022-12-11T07:54:37;2.50;99.90
24638;DHT22;12773;50.162;8.548;2022-12-11T07:57:28;2.50;99.90
24638;DHT22;12773;50.162;8.548;2022-12-11T08:00:29;2.50;99.90
24638;DHT22;12773;50.162;8.548;2022-12-11T08:03:17;2.60;99.90
24638;DHT22;12773;50.162;8.548;2022-12-11T08:06:04;2.70;99.90
24638;DHT22;12773;50.162;8.548;2022-12-11T08:08:53;2.70;99.90
24638;DHT22;12773;50.162;8.548;2022-12-11T08:11:40;2.60;99.90
24638;DHT22;12773;50.162;8.548;2022-12-11T08:14:28;2.60;99.90
24638;DHT22;12773;50.162;8.548;2022-12-11T08:17:15;2.60;99.90
24638;DHT22;12773;50.162;8.548;2022-12-11T08:20:03;2.60;99.90
24638;DHT22;12773;50.162;8.548;2022-12-11T08:22:50;2.70;99.90
24638;DHT22;12773;50.162;8.548;2022-12-11T08:25:39;2.70;99.90
24638;DHT22;12773;50.162;8.548;2022-12-11T08:28:29;2.70;99.90
24638;DHT22;12773;50.162;8.548;2022-12-11T08:31:17;2.80;99.90
24638;DHT22;12773;50.162;8.548;2022-12-11T08:34:05;2.80;99.90
24638;DHT22;12773;50.162;8.548;2022-12-11T08:36:52;2.90;99.90
24638;DHT22;12773;50.162;8.548;2022-12-11T08:39:39;2.90;99.90
24638;DHT22;12773;50.162;8.548;2022-12-11T08:42:28;3.00;99.90
24638;DHT22;12773;50.162;8.548;2022-12-11T08:45:16;3.10;99.90
24638;DHT22;12773;50.162;8.548;2022-12-11T08:48:03;3.10;99.90
24638;DHT22;12773;50.162;8.548;2022-12-11T08:50:51;3.00;99.90
24638;DHT22;12773;50.162;8.548;2022-12-11T08:53:38;3.00;99.90
24638;DHT22;12773;50.162;8.548;2022-12-11T08:56:27;3.00;99.90
24638;DHT22;12773;50.162;8.548;2022-12-11T08:59:16;2.90;99.90
24638;DHT22;12773;50.162;8.548;2022-12-11T09:02:04;2.80;99.90
24638;DHT22;12773;50.162;8.548;2022-12-11T09:04:51;2.70;99.90
24638;DHT22;12773;50.162;8.548;2022-12-11T09:07:38;2.70;99.90
24638;DHT22;12773;50.162;8.548;2022-12-11T09:10:26;2.60;99.90
24638;DHT22;12773;50.162;8.548;2022-12-11T09:13:13;2.60;99.90
24638;DHT22;12773;50.162;8.548;2022-12-11T09:16:03;2.60;99.90
24638;DHT22;12773;50.162;8.548;2022-12-11T09:18:53;2.60;99.90
24638;DHT22;12773;50.162;8.548;2022-12-11T09:21:41;2.60;99.90
24638;DHT22;12773;50.162;8.548;2022-12-11T09:24:28;2.60;99.90
24638;DHT22;12773;50.162;8.548;2022-12-11T09:27:16;2.60;99.90
24638;DHT22;12773;50.162;8.548;2022-12-11T09:30:06;2.60;99.90
24638;DHT22;12773;50.162;8.548;2022-12-11T09:32:54;2.60;99.90
24638;DHT22;12773;50.162;8.548;2022-12-11T09:35:42;2.60;99.90
24638;DHT22;12773;50.162;8.548;2022-12-11T09:38:29;2.60;99.90
24638;DHT22;12773;50.162;8.548;2022-12-11T09:47:19;3.00;99.90
24638;DHT22;12773;50.162;8.548;2022-12-11T09:53:09;3.40;99.90
24638;DHT22;12773;50.162;8.548;2022-12-11T09:56:15;3.50;99.90
24638;DHT22;12773;50.162;8.548;2022-12-11T10:08:29;3.30;99.90
24638;DHT22;12773;50.162;8.548;2022-12-11T10:17:56;3.50;99.90
24638;DHT22;12773;50.162;8.548;2022-12-11T10:20:49;3.40;99.90
24638;DHT22;12773;50.162;8.548;2022-12-11T10:23:43;3.40;99.90
24638;DHT22;12773;50.162;8.548;2022-12-11T10:26:31;3.50;99.90
24638;DHT22;12773;50.162;8.548;2022-12-11T10:29:18;3.50;99.90
24638;DHT22;12773;50.162;8.548;2022-12-11T10:32:12;3.60;99.90
24638;DHT22;12773;50.162;8.548;2022-12-11T10:35:00;3.60;99.90
24638;DHT22;12773;50.162;8.548;2022-12-11T10:37:48;3.50;99.90
24638;DHT22;12773;50.162;8.548;2022-12-11T10:40:37;3.60;99.90
24638;DHT22;12773;50.162;8.548;2022-12-11T10:43:45;3.60;99.90
24638;DHT22;12773;50.162;8.548;2022-12-11T10:46:29;3.50;99.90
24638;DHT22;12773;50.162;8.548;2022-12-11T10:49:29;3.50;99.90
24638;DHT22;12773;50.162;8.548;2022-12-11T10:52:23;3.40;99.90
24638;DHT22;12773;50.162;8.548;2022-12-11T10:55:20;3.20;99.90
24638;DHT22;12773;50.162;8.548;2022-12-11T10:58:19;3.20;99.90
24638;DHT22;12773;50.162;8.548;2022-12-11T11:01:15;2.70;99.90
24638;DHT22;12773;50.162;8.548;2022-12-11T11:04:22;2.40;99.90
24638;DHT22;12773;50.162;8.548;2022-12-11T11:07:20;2.40;99.90
24638;DHT22;12773;50.162;8.548;2022-12-11T11:13:00;2.60;99.90
24638;DHT22;12773;50.162;8.548;2022-12-11T11:15:49;2.80;99.90
24638;DHT22;12773;50.162;8.548;2022-12-11T11:18:39;2.80;99.90
24638;DHT22;12773;50.162;8.548;2022-12-11T11:21:27;2.90;99.90
24638;DHT22;12773;50.162;8.548;2022-12-11T11:24:27;2.90;99.90
24638;DHT22;12773;50.162;8.548;2022-12-11T11:27:38;3.10;99.90
24638;DHT22;12773;50.162;8.548;2022-12-11T11:30:37;3.10;99.90
24638;DHT22;12773;50.162;8.548;2022-12-11T11:33:21;3.10;99.90
24638;DHT22;12773;50.162;8.548;2022-12-11T11:36:23;3.00;99.90
24638;DHT22;12773;50.162;8.548;2022-12-11T11:42:21;2.70;99.90
24638;DHT22;12773;50.162;8.548;2022-12-11T11:45:13;2.70;99.90
24638;DHT22;12773;50.162;8.548;2022-12-11T11:51:48;2.30;99.90
24638;DHT22;12773;50.162;8.548;2022-12-11T11:57:35;2.50;99.90
24638;DHT22;12773;50.162;8.548;2022-12-11T12:00:27;2.60;99.90
24638;DHT22;12773;50.162;8.548;2022-12-11T12:03:22;2.60;99.90
24638;DHT22;12773;50.162;8.548;2022-12-11T12:15:40;2.30;99.90
24638;DHT22;12773;50.162;8.548;2022-12-11T12:18:42;2.50;99.90
24638;DHT22;12773;50.162;8.548;2022-12-11T12:21:36;2.70;99.90
24638;DHT22;12773;50.162;8.548;2022-12-11T12:28:03;3.00;99.90
24638;DHT22;12773;50.162;8.548;2022-12-11T12:31:13;2.80;99.90
24638;DHT22;12773;50.162;8.548;2022-12-11T12:43:46;3.00;99.90
24638;DHT22;12773;50.162;8.548;2022-12-11T12:46:40;3.10;99.90
24638;DHT22;12773;50.162;8.548;2022-12-11T12:49:33;3.20;99.90
24638;DHT22;12773;50.162;8.548;2022-12-11T12:52:35;3.40;99.90
24638;DHT22;12773;50.162;8.548;2022-12-11T12:55:24;3.40;99.90
24638;DHT22;12773;50.162;8.548;2022-12-11T13:01:28;3.30;99.90
24638;DHT22;12773;50.162;8.548;2022-12-11T13:04:36;3.00;99.90
24638;DHT22;12773;50.162;8.548;2022-12-11T13:07:25;2.90;99.90
24638;DHT22;12773;50.162;8.548;2022-12-11T13:10:32;3.00;99.90
24638;DHT22;12773;50.162;8.548;2022-12-11T13:13:38;3.00;99.90
24638;DHT22;12773;50.162;8.548;2022-12-11T13:16:36;3.00;99.90
24638;DHT22;12773;50.162;8.548;2022-12-11T13:19:26;2.90;99.90
24638;DHT22;12773;50.162;8.548;2022-12-11T13:22:24;3.10;99.90
24638;DHT22;12773;50.162;8.548;2022-12-11T13:28:33;3.10;99.90
24638;DHT22;12773;50.162;8.548;2022-12-11T13:31:27;3.10;99.90
24638;DHT22;12773;50.162;8.548;2022-12-11T13:34:20;2.80;99.90
24638;DHT22;12773;50.162;8.548;2022-12-11T13:40:23;3.00;99.90
24638;DHT22;12773;50.162;8.548;2022-12-11T13:43:21;3.10;99.90
24638;DHT22;12773;50.162;8.548;2022-12-11T13:46:06;3.20;99.90
24638;DHT22;12773;50.162;8.548;2022-12-11T13:48:58;3.20;99.90
24638;DHT22;12773;50.162;8.548;2022-12-11T13:51:58;3.30;99.90
24638;DHT22;12773;50.162;8.548;2022-12-11T13:54:46;3.40;99.90
24638;DHT22;12773;50.162;8.548;2022-12-11T13:57:31;3.20;99.90
24638;DHT22;12773;50.162;8.548;2022-12-11T14:00:21;3.20;99.90
24638;DHT22;12773;50.162;8.548;2022-12-11T14:03:10;3.10;99.90
24638;DHT22;12773;50.162;8.548;2022-12-11T14:05:59;2.80;99.90
24638;DHT22;12773;50.162;8.548;2022-12-11T14:08:52;2.90;99.90
24638;DHT22;12773;50.162;8.548;2022-12-11T14:11:41;3.10;99.90
24638;DHT22;12773;50.162;8.548;2022-12-11T14:14:37;3.10;99.90
24638;DHT22;12773;50.162;8.548;2022-12-11T14:17:30;3.10;99.90
24638;DHT22;12773;50.162;8.548;2022-12-11T14:23:20;3.20;99.90
24638;DHT22;12773;50.162;8.548;2022-12-11T14:26:21;3.20;99.90
24638;DHT22;12773;50.162;8.548;2022-12-11T14:29:22;3.20;99.90
24638;DHT22;12773;50.162;8.548;2022-12-11T14:32:03;3.20;99.90
24638;DHT22;12773;50.162;8.548;2022-12-11T14:34:56;3.30;99.90
24638;DHT22;12773;50.162;8.548;2022-12-11T14:37:44;3.40;99.90
24638;DHT22;12773;50.162;8.548;2022-12-11T14:43:45;3.40;99.90
24638;DHT22;12773;50.162;8.548;2022-12-11T14:46:39;3.40;99.90
24638;DHT22;12773;50.162;8.548;2022-12-11T14:49:38;3.40;99.90
24638;DHT22;12773;50.162;8.548;2022-12-11T14:52:26;3.40;99.90
24638;DHT22;12773;50.162;8.548;2022-12-11T14:55:21;3.40;99.90
24638;DHT22;12773;50.162;8.548;2022-12-11T14:58:14;3.40;99.90
24638;DHT22;12773;50.162;8.548;2022-12-11T15:01:04;3.30;99.90
24638;DHT22;12773;50.162;8.548;2022-12-11T15:04:03;3.20;99.90
24638;DHT22;12773;50.162;8.548;2022-12-11T15:06:51;3.30;99.90
24638;DHT22;12773;50.162;8.548;2022-12-11T15:09:39;3.20;99.90
24638;DHT22;12773;50.162;8.548;2022-12-11T15:12:28;3.10;99.90
24638;DHT22;12773;50.162;8.548;2022-12-11T15:15:16;3.20;99.90
24638;DHT22;12773;50.162;8.548;2022-12-11T15:18:06;3.20;99.90
24638;DHT22;12773;50.162;8.548;2022-12-11T15:21:00;3.30;99.90
24638;DHT22;12773;50.162;8.548;2022-12-11T15:23:53;3.30;99.90
24638;DHT22;12773;50.162;8.548;2022-12-11T15:26:46;3.30;99.90
24638;DHT22;12773;50.162;8.548;2022-12-11T15:29:36;3.30;99.90
24638;DHT22;12773;50.162;8.548;2022-12-11T15:32:24;3.30;99.90
24638;DHT22;12773;50.162;8.548;2022-12-11T15:35:23;3.20;99.90
24638;DHT22;12773;50.162;8.548;2022-12-11T15:38:30;3.30;99.90
24638;DHT22;12773;50.162;8.548;2022-12-11T15:41:14;3.30;99.90
24638;DHT22;12773;50.162;8.548;2022-12-11T15:44:03;3.20;99.90
24638;DHT22;12773;50.162;8.548;2022-12-11T15:46:51;3.30;99.90
24638;DHT22;12773;50.162;8.548;2022-12-11T15:49:38;3.30;99.90
24638;DHT22;12773;50.162;8.548;2022-12-11T15:52:25;3.30;99.90
24638;DHT22;12773;50.162;8.548;2022-12-11T15:55:13;3.20;99.90
24638;DHT22;12773;50.162;8.548;2022-12-11T15:58:04;3.30;99.90
24638;DHT22;12773;50.162;8.548;2022-12-11T16:00:52;3.30;99.90
24638;DHT22;12773;50.162;8.548;2022-12-11T16:03:40;3.40;99.90
24638;DHT22;12773;50.162;8.548;2022-12-11T16:06:27;3.40;99.90
24638;DHT22;12773;50.162;8.548;2022-12-11T16:09:15;3.50;99.90
24638;DHT22;12773;50.162;8.548;2022-12-11T16:12:02;3.50;99.90
24638;DHT22;12773;50.162;8.548;2022-12-11T16:14:49;3.30;99.90
24638;DHT22;12773;50.162;8.548;2022-12-11T16:17:38;3.30;99.90
24638;DHT22;12773;50.162;8.548;2022-12-11T16:20:25;3.30;99.90
24638;DHT22;12773;50.162;8.548;2022-12-11T16:23:13;3.30;99.90
24638;DHT22;12773;50.162;8.548;2022-12-11T16:26:06;3.30;99.90
24638;DHT22;12773;50.162;8.548;2022-12-11T16:28:54;3.30;99.90
24638;DHT22;12773;50.162;8.548;2022-12-11T16:31:42;3.40;99.90
24638;DHT22;12773;50.162;8.548;2022-12-11T16:34:29;3.30;99.90
24638;DHT22;12773;50.162;8.548;2022-12-11T16:37:17;3.40;99.90
24638;DHT22;12773;50.162;8.548;2022-12-11T16:40:05;3.30;99.90
24638;DHT22;12773;50.162;8.548;2022-12-11T16:42:53;3.40;99.90
24638;DHT22;12773;50.162;8.548;2022-12-11T16:45:42;3.40;99.90
24638;DHT22;12773;50.162;8.548;2022-12-11T16:48:29;3.40;99.90
24638;DHT22;12773;50.162;8.548;2022-12-11T16:51:17;3.30;99.90
24638;DHT22;12773;50.162;8.548;2022-12-11T16:54:04;3.30;99.90
24638;DHT22;12773;50.162;8.548;2022-12-11T16:56:52;3.30;99.90
24638;DHT22;12773;50.162;8.548;2022-12-11T16:59:39;3.40;99.90
24638;DHT22;12773;50.162;8.548;2022-12-11T17:02:26;3.30;99.90
24638;DHT22;12773;50.162;8.548;2022-12-11T17:05:14;3.40;99.90
24638;DHT22;12773;50.162;8.548;2022-12-11T17:08:01;3.50;99.90
24638;DHT22;12773;50.162;8.548;2022-12-11T17:10:49;3.40;99.90
24638;DHT22;12773;50.162;8.548;2022-12-11T17:13:37;3.40;99.90
24638;DHT22;12773;50.162;8.548;2022-12-11T17:16:25;3.40;99.90
24638;DHT22;12773;50.162;8.548;2022-12-11T17:19:15;3.40;99.90
24638;DHT22;12773;50.162;8.548;2022-12-11T17:22:03;3.40;99.90
24638;DHT22;12773;50.162;8.548;2022-12-11T17:24:50;3.40;99.90
24638;DHT22;12773;50.162;8.548;2022-12-11T17:27:38;3.40;99.90
24638;DHT22;12773;50.162;8.548;2022-12-11T17:30:25;3.30;99.90
24638;DHT22;12773;50.162;8.548;2022-12-11T17:33:13;3.30;99.90
24638;DHT22;12773;50.162;8.548;2022-12-11T17:36:02;3.30;99.90
24638;DHT22;12773;50.162;8.548;2022-12-11T17:38:50;3.30;99.90
24638;DHT22;12773;50.162;8.548;2022-12-11T17:41:37;3.30;99.90
24638;DHT22;12773;50.162;8.548;2022-12-11T17:44:25;3.30;99.90
24638;DHT22;12773;50.162;8.548;2022-12-11T17:47:13;3.40;99.90
24638;DHT22;12773;50.162;8.548;2022-12-11T17:50:01;3.40;99.90
24638;DHT22;12773;50.162;8.548;2022-12-11T17:52:49;3.30;99.90
24638;DHT22;12773;50.162;8.548;2022-12-11T17:55:38;3.30;99.90
24638;DHT22;12773;50.162;8.548;2022-12-11T17:58:27;3.30;99.90
24638;DHT22;12773;50.162;8.548;2022-12-11T18:01:15;3.30;99.90
24638;DHT22;12773;50.162;8.548;2022-12-11T18:04:02;3.40;99.90
24638;DHT22;12773;50.162;8.548;2022-12-11T18:06:50;3.40;99.90
24638;DHT22;12773;50.162;8.548;2022-12-11T18:09:39;3.40;99.90
24638;DHT22;12773;50.162;8.548;2022-12-11T18:12:26;3.50;99.90
24638;DHT22;12773;50.162;8.548;2022-12-11T18:15:15;3.40;99.90
24638;DHT22;12773;50.162;8.548;2022-12-11T18:18:05;3.40;99.90
24638;DHT22;12773;50.162;8.548;2022-12-11T18:20:52;3.40;99.90
24638;DHT22;12773;50.162;8.548;2022-12-11T18:23:40;3.40;99.90
24638;DHT22;12773;50.162;8.548;2022-12-11T18:26:28;3.40;99.90
24638;DHT22;12773;50.162;8.548;2022-12-11T18:29:15;3.40;99.90
24638;DHT22;12773;50.162;8.548;2022-12-11T18:32:03;3.40;99.90
24638;DHT22;12773;50.162;8.548;2022-12-11T18:34:50;3.50;99.90
24638;DHT22;12773;50.162;8.548;2022-12-11T18:37:37;3.50;99.90
24638;DHT22;12773;50.162;8.548;2022-12-11T18:40:26;3.60;99.90
24638;DHT22;12773;50.162;8.548;2022-12-11T18:43:14;3.60;99.90
24638;DHT22;12773;50.162;8.548;2022-12-11T18:46:06;3.60;99.90
24638;DHT22;12773;50.162;8.548;2022-12-11T18:48:55;3.50;99.90
24638;DHT22;12773;50.162;8.548;2022-12-11T18:51:43;3.50;99.90
24638;DHT22;12773;50.162;8.548;2022-12-11T18:54:30;3.40;99.90
24638;DHT22;12773;50.162;8.548;2022-12-11T18:57:17;3.40;99.90
24638;DHT22;12773;50.162;8.548;2022-12-11T19:00:05;3.40;99.90
24638;DHT22;12773;50.162;8.548;2022-12-11T19:02:53;3.40;99.90
24638;DHT22;12773;50.162;8.548;2022-12-11T19:05:41;3.40;99.90
24638;DHT22;12773;50.162;8.548;2022-12-11T19:08:29;3.30;99.90
24638;DHT22;12773;50.162;8.548;2022-12-11T19:11:18;3.30;99.90
24638;DHT22;12773;50.162;8.548;2022-12-11T19:14:06;3.20;99.90
24638;DHT22;12773;50.162;8.548;2022-12-11T19:16:54;3.10;99.90
24638;DHT22;12773;50.162;8.548;2022-12-11T19:19:41;3.00;99.90
24638;DHT22;12773;50.162;8.548;2022-12-11T19:22:31;3.00;99.90
24638;DHT22;12773;50.162;8.548;2022-12-11T19:25:18;3.00;99.90
24638;DHT22;12773;50.162;8.548;2022-12-11T19:28:05;3.00;99.90
24638;DHT22;12773;50.162;8.548;2022-12-11T19:30:53;3.10;99.90
24638;DHT22;12773;50.162;8.548;2022-12-11T19:33:42;3.10;99.90
24638;DHT22;12773;50.162;8.548;2022-12-11T19:36:29;3.10;99.90